createdAt,value
2018-08-16T00:02:19.489Z,16.50
2018-08-16T00:04:47.684Z,16.50
2018-08-16T00:07:15.803Z,16.50
2018-08-16T00:09:43.876Z,16.50
2018-08-16T00:12:12.047Z,16.50
2018-08-16T00:14:40.144Z,16.40
2018-08-16T00:17:09.057Z,16.30
2018-08-16T00:19:37.212Z,16.40
2018-08-16T00:22:05.480Z,16.20
2018-08-16T00:24:33.638Z,16.30
2018-08-16T00:27:01.766Z,16.20
2018-08-16T00:29:30.079Z,16.20
2018-08-16T00:31:58.229Z,16.20
2018-08-16T00:34:26.319Z,16.20
2018-08-16T00:36:54.371Z,16.20
2018-08-16T00:39:22.430Z,16.10
2018-08-16T00:41:50.456Z,16.00
2018-08-16T00:44:18.539Z,16.00
2018-08-16T00:46:46.663Z,15.90
2018-08-16T00:49:14.767Z,15.90
2018-08-16T00:51:42.913Z,15.90
2018-08-16T00:54:11.034Z,15.90
2018-08-16T00:56:39.084Z,15.90
2018-08-16T00:59:07.219Z,15.90
2018-08-16T01:01:35.332Z,15.90
2018-08-16T01:04:03.523Z,15.80
2018-08-16T01:06:31.580Z,15.90
2018-08-16T01:08:59.652Z,15.90
2018-08-16T01:11:27.733Z,15.90
2018-08-16T01:13:55.835Z,15.90
2018-08-16T01:16:23.941Z,15.90
2018-08-16T01:18:52.132Z,15.90
2018-08-16T01:21:20.275Z,15.90
2018-08-16T01:23:48.441Z,15.90
2018-08-16T01:26:16.542Z,15.80
2018-08-16T01:28:44.750Z,15.80
2018-08-16T01:31:12.888Z,15.80
2018-08-16T01:33:41.073Z,15.80
2018-08-16T01:36:09.212Z,15.80
2018-08-16T01:38:37.373Z,15.90
2018-08-16T01:41:05.497Z,15.90
2018-08-16T01:43:33.605Z,15.80
2018-08-16T01:46:01.683Z,15.90
2018-08-16T01:48:30.121Z,15.70
2018-08-16T01:50:58.259Z,15.70
2018-08-16T01:53:26.329Z,15.60
2018-08-16T01:55:54.448Z,15.60
2018-08-16T01:58:22.612Z,15.60
2018-08-16T02:00:50.684Z,15.60
2018-08-16T02:03:18.835Z,15.60
2018-08-16T02:05:46.988Z,15.60
2018-08-16T02:08:15.164Z,15.60
2018-08-16T02:10:43.218Z,15.60
2018-08-16T02:13:11.374Z,15.60
2018-08-16T02:15:39.486Z,15.50
2018-08-16T02:18:08.115Z,15.50
2018-08-16T02:20:36.286Z,15.50
2018-08-16T02:23:04.411Z,15.40
2018-08-16T02:25:32.596Z,15.40
2018-08-16T02:28:00.644Z,15.40
2018-08-16T02:30:28.747Z,15.40
2018-08-16T02:32:56.910Z,15.40
2018-08-16T02:35:25.001Z,15.40
2018-08-16T02:37:53.126Z,15.30
2018-08-16T02:40:21.173Z,15.40
2018-08-16T02:42:49.341Z,15.30
2018-08-16T02:45:17.461Z,15.30
2018-08-16T02:47:45.529Z,15.30
2018-08-16T02:50:13.584Z,15.30
2018-08-16T02:52:41.625Z,15.30
2018-08-16T02:55:09.749Z,15.20
2018-08-16T02:57:37.857Z,15.10
2018-08-16T03:00:07.312Z,15.30
2018-08-16T03:02:35.464Z,15.20
2018-08-16T03:05:04.246Z,15.20
2018-08-16T03:07:32.325Z,15.20
2018-08-16T03:10:00.381Z,15.20
2018-08-16T03:12:28.438Z,15.20
2018-08-16T03:14:56.540Z,15.20
2018-08-16T03:17:27.500Z,15.10
2018-08-16T03:19:55.595Z,15.00
2018-08-16T03:22:23.721Z,15.00
2018-08-16T03:24:51.799Z,15.00
2018-08-16T03:27:19.944Z,15.00
2018-08-16T03:29:48.031Z,14.90
2018-08-16T03:32:16.147Z,15.00
2018-08-16T03:34:44.235Z,15.00
2018-08-16T03:37:12.313Z,15.10
2018-08-16T03:39:40.412Z,15.00
2018-08-16T03:42:08.512Z,15.00
2018-08-16T03:44:36.616Z,15.00
2018-08-16T03:47:04.744Z,15.00
2018-08-16T03:49:32.805Z,15.00
2018-08-16T03:52:00.936Z,15.00
2018-08-16T03:54:29.075Z,14.90
2018-08-16T03:56:57.221Z,14.90
2018-08-16T03:59:25.288Z,14.90
2018-08-16T04:01:53.430Z,14.90
2018-08-16T04:04:21.502Z,14.80
2018-08-16T04:06:49.603Z,14.80
2018-08-16T04:09:17.664Z,14.80
2018-08-16T04:11:45.748Z,14.80
2018-08-16T04:14:13.837Z,14.80
2018-08-16T04:16:41.961Z,14.80
2018-08-16T04:19:10.111Z,14.90
2018-08-16T04:21:38.163Z,15.00
2018-08-16T04:24:06.293Z,15.00
2018-08-16T04:26:34.363Z,15.00
2018-08-16T04:29:02.499Z,14.90
2018-08-16T04:31:30.690Z,15.00
2018-08-16T04:33:58.796Z,15.00
2018-08-16T04:36:27.031Z,15.00
2018-08-16T04:38:55.181Z,15.00
2018-08-16T04:41:23.241Z,15.10
2018-08-16T04:43:51.336Z,15.20
2018-08-16T04:46:19.415Z,15.20
2018-08-16T04:48:47.468Z,15.30
2018-08-16T04:51:15.549Z,15.30
2018-08-16T04:53:43.606Z,15.40
2018-08-16T04:56:11.669Z,15.40
2018-08-16T04:58:39.780Z,15.60
2018-08-16T05:01:07.866Z,15.60
2018-08-16T05:03:35.993Z,15.60
2018-08-16T05:06:04.186Z,15.70
2018-08-16T05:08:32.240Z,15.80
2018-08-16T05:11:00.449Z,15.90
2018-08-16T05:13:28.469Z,16.00
2018-08-16T05:15:56.612Z,16.10
2018-08-16T05:18:24.765Z,16.30
2018-08-16T05:20:52.904Z,16.30
2018-08-16T05:23:20.996Z,16.40
2018-08-16T05:25:49.049Z,16.60
2018-08-16T05:28:17.208Z,16.70
2018-08-16T05:30:45.744Z,16.80
2018-08-16T05:33:13.831Z,16.90
2018-08-16T05:35:41.999Z,17.00
2018-08-16T05:38:10.139Z,17.10
2018-08-16T05:40:38.227Z,17.30
2018-08-16T05:43:06.359Z,17.40
2018-08-16T05:45:34.452Z,17.50
2018-08-16T05:48:02.692Z,17.60
2018-08-16T05:50:30.798Z,17.80
2018-08-16T05:52:58.865Z,17.90
2018-08-16T05:55:26.993Z,18.10
2018-08-16T05:57:55.048Z,18.20
2018-08-16T06:00:23.241Z,18.40
2018-08-16T06:02:51.432Z,18.50
2018-08-16T06:05:19.522Z,18.70
2018-08-16T06:07:47.616Z,18.80
2018-08-16T06:10:15.703Z,19.00
2018-08-16T06:12:43.801Z,19.10
2018-08-16T06:15:12.050Z,19.30
2018-08-16T06:17:40.179Z,19.50
2018-08-16T06:20:09.888Z,19.70
2018-08-16T06:22:38.165Z,19.80
2018-08-16T06:25:08.187Z,19.90
2018-08-16T06:27:36.282Z,20.10
2018-08-16T06:30:07.592Z,20.20
2018-08-16T06:32:35.731Z,20.40
2018-08-16T06:35:04.507Z,20.40
2018-08-16T06:37:32.613Z,20.60
2018-08-16T06:40:00.920Z,20.80
2018-08-16T06:42:29.041Z,20.90
2018-08-16T06:44:57.142Z,21.00
2018-08-16T06:47:25.375Z,21.20
2018-08-16T06:49:53.510Z,21.40
2018-08-16T06:52:21.631Z,21.50
2018-08-16T06:54:49.717Z,21.70
2018-08-16T06:57:17.909Z,21.90
2018-08-16T06:59:46.160Z,22.00
2018-08-16T07:02:14.272Z,21.90
2018-08-16T07:04:42.427Z,22.10
2018-08-16T07:07:10.630Z,22.20
2018-08-16T07:09:39.529Z,22.40
2018-08-16T07:12:12.574Z,22.50
2018-08-16T07:14:40.899Z,22.70
2018-08-16T07:17:09.676Z,22.80
2018-08-16T07:19:38.178Z,23.00
2018-08-16T07:22:06.498Z,23.10
2018-08-16T07:24:34.917Z,23.20
2018-08-16T07:27:03.215Z,23.20
2018-08-16T07:29:31.475Z,23.20
2018-08-16T07:31:59.668Z,23.40
2018-08-16T07:34:27.937Z,23.40
2018-08-16T07:36:56.032Z,23.70
2018-08-16T07:39:24.360Z,23.90
2018-08-16T07:41:52.525Z,24.10
2018-08-16T07:44:20.765Z,24.60
2018-08-16T07:46:48.990Z,24.90
2018-08-16T07:49:17.164Z,25.00
2018-08-16T07:51:45.522Z,25.50
2018-08-16T07:54:13.551Z,26.30
2018-08-16T07:56:41.813Z,27.10
2018-08-16T07:59:09.958Z,27.40
2018-08-16T08:01:38.146Z,27.70
2018-08-16T08:04:06.659Z,27.50
2018-08-16T08:06:35.833Z,27.80
2018-08-16T08:09:06.160Z,27.70
2018-08-16T08:11:34.395Z,28.40
2018-08-16T08:14:02.697Z,28.40
2018-08-16T08:16:30.837Z,28.80
2018-08-16T08:18:59.153Z,29.10
2018-08-16T08:21:27.839Z,29.00
2018-08-16T08:23:56.413Z,29.50
2018-08-16T08:26:24.999Z,30.20
2018-08-16T08:28:53.413Z,30.70
2018-08-16T08:31:23.260Z,30.60
2018-08-16T08:33:51.809Z,31.60
2018-08-16T08:36:30.939Z,31.80
2018-08-16T08:39:00.012Z,31.30
2018-08-16T08:41:28.564Z,31.10
2018-08-16T08:44:10.653Z,31.20
2018-08-16T08:46:39.044Z,31.20
2018-08-16T08:49:07.544Z,31.20
2018-08-16T08:51:36.878Z,32.20
2018-08-16T08:56:18.334Z,33.60
2018-08-16T08:58:50.335Z,32.40
2018-08-16T09:01:18.547Z,32.50
2018-08-16T09:03:46.935Z,32.70
2018-08-16T09:06:16.408Z,32.60
2018-08-16T09:08:44.921Z,32.60
2018-08-16T09:11:24.179Z,33.20
2018-08-16T09:14:04.578Z,32.60
2018-08-16T09:16:37.876Z,33.30
2018-08-16T09:19:08.808Z,33.80
2018-08-16T09:21:38.813Z,34.60
2018-08-16T09:24:07.800Z,33.90
2018-08-16T09:26:42.062Z,32.00
2018-08-16T09:30:24.590Z,31.40
2018-08-16T09:33:03.697Z,32.60
2018-08-16T09:35:31.917Z,33.80
2018-08-16T09:38:00.114Z,32.80
2018-08-16T09:40:28.385Z,32.20
2018-08-16T09:42:56.647Z,31.40
2018-08-16T09:45:35.802Z,30.60
2018-08-16T09:48:14.985Z,30.30
2018-08-16T09:50:43.201Z,29.20
2018-08-16T09:53:11.569Z,29.00
2018-08-16T09:55:39.998Z,29.50
2018-08-16T09:58:08.723Z,31.00
2018-08-16T10:00:42.848Z,31.70
2018-08-16T10:03:14.504Z,30.50
2018-08-16T10:05:45.661Z,29.90
2018-08-16T10:08:16.718Z,29.50
2018-08-16T10:10:50.329Z,29.20
2018-08-16T10:13:20.300Z,30.30
2018-08-16T10:15:50.372Z,30.90
2018-08-16T10:18:19.087Z,30.90
2018-08-16T10:20:48.480Z,30.80
2018-08-16T10:23:18.463Z,30.20
2018-08-16T10:25:46.923Z,28.90
2018-08-16T10:28:15.458Z,28.30
2018-08-16T10:30:45.161Z,27.80
2018-08-16T10:33:14.950Z,28.00
2018-08-16T10:35:45.116Z,29.50
2018-08-16T10:38:14.548Z,32.00
2018-08-16T10:40:42.916Z,32.90
2018-08-16T10:43:11.546Z,34.30
2018-08-16T10:45:40.589Z,33.90
2018-08-16T10:48:14.660Z,34.20
2018-08-16T10:50:43.116Z,34.30
2018-08-16T10:53:11.476Z,35.30
2018-08-16T10:55:39.787Z,36.70
2018-08-16T10:58:07.976Z,37.10
2018-08-16T11:00:36.309Z,37.00
2018-08-16T11:03:04.622Z,36.50
2018-08-16T11:05:34.021Z,34.70
2018-08-16T11:08:02.331Z,34.50
2018-08-16T11:10:30.582Z,35.10
2018-08-16T11:12:58.840Z,36.20
2018-08-16T11:15:27.188Z,36.10
2018-08-16T11:17:55.597Z,34.90
2018-08-16T11:20:23.986Z,33.90
2018-08-16T11:22:52.594Z,33.50
2018-08-16T11:25:21.908Z,32.00
2018-08-16T11:27:52.176Z,31.40
2018-08-16T11:30:21.618Z,31.50
2018-08-16T11:32:51.668Z,32.50
2018-08-16T11:35:20.336Z,34.70
2018-08-16T11:37:50.470Z,35.90
2018-08-16T11:40:21.695Z,35.90
2018-08-16T11:42:54.985Z,35.70
2018-08-16T11:45:24.283Z,34.40
2018-08-16T11:47:53.935Z,34.50
2018-08-16T11:50:22.769Z,34.00
2018-08-16T11:52:51.563Z,31.80
2018-08-16T11:55:23.687Z,29.70
2018-08-16T11:58:13.342Z,29.00
2018-08-16T12:00:48.551Z,28.90
2018-08-16T12:03:18.030Z,30.00
2018-08-16T12:05:48.042Z,31.60
2018-08-16T12:08:20.040Z,32.30
2018-08-16T12:10:50.725Z,31.70
2018-08-16T12:13:21.679Z,32.90
2018-08-16T12:15:52.433Z,34.20
2018-08-16T12:18:21.847Z,35.20
2018-08-16T12:20:50.675Z,35.70
2018-08-16T12:23:19.307Z,35.60
2018-08-16T12:25:47.688Z,37.20
2018-08-16T12:28:16.038Z,37.40
2018-08-16T12:30:44.530Z,36.90
2018-08-16T12:33:13.025Z,36.80
2018-08-16T12:35:41.354Z,34.90
2018-08-16T12:38:09.629Z,32.50
2018-08-16T12:40:39.221Z,30.90
2018-08-16T12:43:07.678Z,31.30
2018-08-16T12:45:36.090Z,31.30
2018-08-16T12:48:04.566Z,32.10
2018-08-16T12:50:33.004Z,31.90
2018-08-16T12:53:01.411Z,31.70
2018-08-16T12:55:29.864Z,32.70
2018-08-16T12:57:58.276Z,34.00
2018-08-16T13:00:27.852Z,35.70
2018-08-16T13:02:56.611Z,36.50
2018-08-16T13:05:26.332Z,36.90
2018-08-16T13:07:55.074Z,36.80
2018-08-16T13:10:23.545Z,36.30
2018-08-16T13:12:52.144Z,36.40
2018-08-16T13:15:20.793Z,35.60
2018-08-16T13:17:49.412Z,34.90
2018-08-16T13:20:19.492Z,36.40
2018-08-16T13:22:49.611Z,35.70
2018-08-16T13:25:20.760Z,34.00
2018-08-16T13:27:50.954Z,32.00
2018-08-16T13:30:31.591Z,30.60
2018-08-16T13:33:07.301Z,29.20
2018-08-16T13:35:53.870Z,28.60
2018-08-16T13:38:36.920Z,28.20
2018-08-16T13:44:12.912Z,28.50
2018-08-16T13:46:54.930Z,29.00
2018-08-16T15:44:14.293Z,26.80
2018-08-16T15:47:06.996Z,26.80
2018-08-16T15:49:38.405Z,26.70
2018-08-16T15:55:17.065Z,26.80
2018-08-16T16:00:58.475Z,26.50
2018-08-16T16:03:38.753Z,26.50
2018-08-16T16:06:10.158Z,26.50
2018-08-16T16:08:43.851Z,26.40
2018-08-16T16:11:18.224Z,26.40
2018-08-16T16:20:05.841Z,26.20
2018-08-16T16:22:41.249Z,26.10
2018-08-16T16:25:14.643Z,26.10
2018-08-16T16:27:43.936Z,26.10
2018-08-16T16:30:13.236Z,26.00
2018-08-16T16:32:49.705Z,25.90
2018-08-16T16:35:24.844Z,25.90
2018-08-16T16:37:55.683Z,25.90
2018-08-16T16:40:28.666Z,25.90
2018-08-16T16:42:57.704Z,25.90
2018-08-16T16:45:29.317Z,25.80
2018-08-16T16:47:59.570Z,25.80
2018-08-16T16:50:29.358Z,25.80
2018-08-16T16:53:01.576Z,25.70
2018-08-16T17:04:12.053Z,25.70
2018-08-16T17:06:55.429Z,25.50
2018-08-16T17:54:01.611Z,23.70
2018-08-16T17:56:36.441Z,23.20
2018-08-16T17:59:10.632Z,23.00
2018-08-16T18:01:46.132Z,23.00
2018-08-16T18:04:17.838Z,22.80
2018-08-16T18:06:48.787Z,22.70
2018-08-16T18:09:23.205Z,22.70
2018-08-16T18:11:56.747Z,22.50
2018-08-16T18:14:37.473Z,22.40
2018-08-16T18:17:13.571Z,22.40
2018-08-16T18:22:37.006Z,22.20
2018-08-16T18:25:14.222Z,22.10
2018-08-16T18:27:49.050Z,21.90
2018-08-16T18:30:21.592Z,21.80
2018-08-16T18:32:54.419Z,21.70
2018-08-16T18:35:29.189Z,21.60
2018-08-16T18:38:02.077Z,21.50
2018-08-16T18:40:36.810Z,21.40
2018-08-16T18:43:09.295Z,21.20
2018-08-16T18:45:45.829Z,21.20
2018-08-16T18:48:22.634Z,21.10
2018-08-16T18:50:57.767Z,20.90
2018-08-16T18:53:42.156Z,20.80
2018-08-16T18:56:16.029Z,20.80
2018-08-16T18:58:56.090Z,20.60
2018-08-16T19:01:33.173Z,20.60
2018-08-16T19:04:09.114Z,20.50
2018-08-16T19:06:43.175Z,20.50
2018-08-16T19:09:17.983Z,20.40
2018-08-16T19:11:57.302Z,20.50
2018-08-16T19:14:32.150Z,20.50
2018-08-16T19:17:08.096Z,20.50
2018-08-16T19:19:45.935Z,20.40
2018-08-16T19:22:22.278Z,20.30
2018-08-16T19:25:06.712Z,20.30
2018-08-16T19:30:45.993Z,20.20
2018-08-16T19:33:29.074Z,20.20
2018-08-16T19:36:04.165Z,20.00
2018-08-16T19:38:42.837Z,19.90
2018-08-16T19:41:28.124Z,19.80
2018-08-16T19:44:15.373Z,19.70
2018-08-16T19:46:53.060Z,19.60
2018-08-16T19:50:10.068Z,19.50
2018-08-16T19:52:54.866Z,19.50
2018-08-16T19:55:35.600Z,19.40
2018-08-16T19:58:41.528Z,19.50
2018-08-16T20:15:15.238Z,19.30
2018-08-16T20:21:37.190Z,19.10
2018-08-16T20:25:39.875Z,19.00
2018-08-16T20:46:18.849Z,18.60
2018-08-16T21:06:36.172Z,18.40
2018-08-16T21:09:06.261Z,18.30
2018-08-16T21:11:34.432Z,18.30
2018-08-16T21:14:02.538Z,18.30
2018-08-16T21:16:30.717Z,18.20
2018-08-16T21:18:58.888Z,18.10
2018-08-16T21:21:27.278Z,18.00
2018-08-16T21:23:55.494Z,17.90
2018-08-16T21:26:23.709Z,17.90
2018-08-16T21:28:51.825Z,18.00
2018-08-16T21:31:19.970Z,17.90
2018-08-16T21:33:48.146Z,18.00
2018-08-16T21:36:16.281Z,17.90
2018-08-16T21:38:44.459Z,17.90
2018-08-16T21:41:12.999Z,17.90
2018-08-16T21:43:41.175Z,17.90
2018-08-16T21:46:09.265Z,17.80
2018-08-16T21:48:37.375Z,17.80
2018-08-16T21:51:05.527Z,17.70
2018-08-16T21:53:34.182Z,17.70
2018-08-16T21:56:02.388Z,17.70
2018-08-16T21:58:30.469Z,17.60
2018-08-16T22:01:02.141Z,17.60
2018-08-16T22:03:30.252Z,17.70
2018-08-16T22:06:09.234Z,17.60
2018-08-16T22:08:43.018Z,17.50
2018-08-16T22:11:11.403Z,17.40
2018-08-16T22:13:39.698Z,17.40
2018-08-16T22:16:08.028Z,17.40
2018-08-16T22:18:36.669Z,17.30
2018-08-16T22:21:04.954Z,17.30
2018-08-16T22:23:33.167Z,17.20
2018-08-16T22:26:01.793Z,17.30
2018-08-16T22:28:30.124Z,17.30
2018-08-16T22:30:58.997Z,17.20
2018-08-16T22:33:27.168Z,17.20
2018-08-16T22:35:55.417Z,17.20
2018-08-16T22:38:23.547Z,17.10
2018-08-16T22:40:51.724Z,17.10
2018-08-16T22:43:19.833Z,17.10
2018-08-16T22:45:47.966Z,17.10
2018-08-16T22:48:16.092Z,17.00
2018-08-16T22:50:44.318Z,17.00
2018-08-16T22:53:13.529Z,17.00
2018-08-16T22:55:41.833Z,17.00
2018-08-16T22:58:09.975Z,17.00
2018-08-16T23:00:38.132Z,17.00
2018-08-16T23:03:06.321Z,16.90
2018-08-16T23:05:34.383Z,16.90
2018-08-16T23:08:02.555Z,16.80
2018-08-16T23:10:30.701Z,16.80
2018-08-16T23:12:58.916Z,16.80
2018-08-16T23:15:27.110Z,16.70
2018-08-16T23:17:55.208Z,16.70
2018-08-16T23:20:23.300Z,16.60
2018-08-16T23:22:51.450Z,16.70
2018-08-16T23:25:19.563Z,16.60
2018-08-16T23:27:47.646Z,16.60
2018-08-16T23:30:16.240Z,16.70
2018-08-16T23:32:44.381Z,16.60
2018-08-16T23:35:12.511Z,16.50
2018-08-16T23:37:40.916Z,16.60
2018-08-16T23:40:11.782Z,16.60
2018-08-16T23:42:40.125Z,16.50
2018-08-16T23:45:09.133Z,16.50
2018-08-16T23:47:37.281Z,16.50
2018-08-16T23:50:07.435Z,16.60
2018-08-16T23:52:35.547Z,16.50
2018-08-16T23:55:04.124Z,16.40
2018-08-16T23:57:32.198Z,16.40
